Time;durP1;ratioP1;P1;durP2;ratioP2;P2;SDS_P1;SDS_P2;PMS_P1;PMS_P2;Temp;Humidity;BMP_temperature;BMP_pressure;BME280_temperature;BME280_humidity;BME280_pressure;Samples;Min_cycle;Max_cycle;Signal;HPM_P1;HPM_P2
2023/04/24 00:03:33;;;;;;;;;;;;;;;10.97;70.47;99604.28;5032305;28;19997;-92
2023/04/24 00:05:58;;;;;;;;;;;;;;;10.98;69.58;99606.06;5013906;28;20350;-92
2023/04/24 00:08:24;;;;;;;;;;;;;;;10.86;70.04;99605.38;5014034;28;20011;-91
2023/04/24 00:10:49;;;;;;;;;;;;;;;10.89;69.94;99601.78;5032379;28;19970;-91
2023/04/24 00:13:15;;;;;;;;;;;;;;;10.88;69.81;99606.22;5031908;28;20003;-91
2023/04/24 00:15:40;;;;;;;;;;;;;;;10.95;69.82;99606.09;5013642;28;19913;-91
2023/04/24 00:18:11;;;;;;;;;;;;;;;10.83;70.29;99610.72;5014097;28;20089;-91
2023/04/24 00:20:44;;;;;;;;;;;;;;;10.89;70.23;99615.00;5014219;28;20000;-93
2023/04/24 00:23:14;;;;;;;;;;;;;;;10.71;70.24;99610.91;5014305;28;19913;-94
2023/04/24 00:25:39;;;;;;;;;;;;;;;10.74;70.47;99617.00;5031273;28;19913;-92
2023/04/24 00:28:05;;;;;;;;;;;;;;;10.81;70.01;99620.41;5032036;28;19970;-91
2023/04/24 00:30:31;;;;;;;;;;;;;;;10.79;70.18;99618.72;5031112;28;19970;-90
2023/04/24 00:32:57;;;;;;;;;;;;;;;10.85;69.97;99616.81;5031581;28;20405;-90
2023/04/24 00:35:23;;;;;;;;;;;;;;;10.71;70.10;99614.41;5013664;28;20271;-90
2023/04/24 00:37:48;;;;;;;;;;;;;;;10.63;70.25;99612.78;5031062;28;19932;-91
2023/04/24 00:40:14;;;;;;;;;;;;;;;10.65;70.74;99611.03;5031411;28;20027;-89
2023/04/24 00:42:40;;;;;;;;;;;;;;;10.46;70.99;99599.91;5031180;28;19917;-90
2023/04/24 00:45:06;;;;;;;;;;;;;;;10.44;71.45;99599.94;5031383;28;19913;-90
2023/04/24 00:47:33;;;;;;;;;;;;;;;10.60;70.73;99590.00;5031117;28;19919;-89
2023/04/24 00:50:00;;;;;;;;;;;;;;;10.46;70.97;99599.91;5013513;28;20417;-89
2023/04/24 00:52:26;;;;;;;;;;;;;;;10.42;71.14;99599.06;5029540;28;20375;-89
2023/04/24 00:55:15;;;;;;;;;;;;;;;10.33;71.29;99604.50;5031135;28;19920;-88
2023/04/24 00:57:45;;;;;;;;;;;;;;;10.09;71.68;99605.72;5030459;28;19917;-88
2023/04/24 01:00:13;;;;;;;;;;;;;;;10.00;72.60;99610.19;5031185;28;20005;-88
2023/04/24 01:03:05;;;;;;;;;;;;;;;9.98;72.75;99609.38;5031250;28;19917;-89
2023/04/24 01:05:31;;;;;;;;;;;;;;;10.25;71.46;99606.34;5030968;28;19999;-87
2023/04/24 01:07:57;;;;;;;;;;;;;;;10.31;71.42;99604.47;5030760;28;19913;-89
2023/04/24 01:10:29;;;;;;;;;;;;;;;10.06;72.49;99603.97;5030724;28;19913;-88
2023/04/24 01:16:48;;;;;;;;;;;;;;;;;;;;;
2023/04/24 01:19:44;;;;;;;;;;;;;;;9.83;74.11;99597.25;5017553;28;19920;-90
2023/04/24 01:22:13;;;;;;;;;;;;;;;10.02;73.77;99599.63;5017850;28;19917;-90
2023/04/24 01:24:42;;;;;;;;;;;;;;;10.02;73.92;99597.00;5017885;28;19933;-92
2023/04/24 01:27:08;;;;;;;;;;;;;;;10.07;73.87;99603.09;5017283;28;20311;-93
2023/04/24 01:32:52;;;;;;;;;;;;;;;10.14;72.93;99599.47;4996080;28;19921;-91
2023/04/24 01:35:18;;;;;;;;;;;;;;;10.23;72.18;99597.59;4979122;28;19918;-92
2023/04/24 01:37:43;;;;;;;;;;;;;;;10.00;73.50;99604.06;4995741;28;19925;-93
2023/04/24 01:40:09;;;;;;;;;;;;;;;9.81;74.02;99608.72;4996641;28;19921;-93
2023/04/24 01:42:34;;;;;;;;;;;;;;;9.90;74.01;99616.50;4995584;28;20029;-90
2023/04/24 01:45:00;;;;;;;;;;;;;;;9.92;73.70;99617.34;4979071;28;20029;-90
2023/04/24 01:47:26;;;;;;;;;;;;;;;10.01;73.84;99617.22;4995267;28;19914;-91
2023/04/24 01:49:51;;;;;;;;;;;;;;;9.91;73.91;99622.63;4995613;28;19922;-89
2023/04/24 01:52:18;;;;;;;;;;;;;;;9.96;73.51;99618.16;4995428;28;19918;-90
2023/04/24 01:54:43;;;;;;;;;;;;;;;9.99;73.42;99615.50;4995598;28;19913;-90
2023/04/24 01:57:09;;;;;;;;;;;;;;;9.85;73.68;99613.94;4995040;28;19964;-92
2023/04/24 02:05:43;;;;;;;;;;;;;;;9.84;73.42;99613.97;4998042;28;19916;-90
2023/04/24 02:30:27;;;;;;;;;;;;;;;9.73;73.57;99600.03;4934789;29;20003;-90
2023/04/24 02:38:58;;;;;;;;;;;;;;;9.67;72.92;99595.75;4947851;28;19980;-89
2023/04/24 02:41:24;;;;;;;;;;;;;;;9.56;72.31;99594.97;4953188;29;20012;-91
2023/04/24 02:43:49;;;;;;;;;;;;;;;9.32;72.74;99586.50;4953373;29;20392;-91
2023/04/24 02:46:27;;;;;;;;;;;;;;;9.05;73.17;99583.28;4954012;29;19915;-93
2023/04/24 02:48:52;;;;;;;;;;;;;;;9.08;73.44;99582.38;4953072;29;19914;-89
2023/04/24 02:51:18;;;;;;;;;;;;;;;9.02;73.58;99585.97;4953383;29;19918;-90
2023/04/24 02:53:59;;;;;;;;;;;;;;;8.68;75.84;99588.91;4953511;29;19965;-91
2023/04/24 02:56:25;;;;;;;;;;;;;;;8.74;75.56;99590.59;4997515;28;19918;-91
2023/04/24 03:07:58;;;;;;;;;;;;;;;8.83;75.68;99590.50;5033279;28;19999;-92
2023/04/24 03:13:36;;;;;;;;;;;;;;;8.93;75.02;99586.06;4971535;28;19921;-90
2023/04/24 03:16:06;;;;;;;;;;;;;;;8.93;74.16;99593.94;4971973;28;20499;-91
2023/04/24 03:19:08;;;;;;;;;;;;;;;9.02;74.32;99588.59;4959374;28;19928;-90
2023/04/24 03:24:56;;;;;;;;;;;;;;;9.06;73.98;99577.13;4973650;28;19910;-88
2023/04/24 03:36:41;;;;;;;;;;;;;;;8.74;74.53;99593.22;4900530;29;19955;-89
2023/04/24 03:39:15;;;;;;;;;;;;;;;8.88;74.91;99601.88;4913844;29;19925;-91
2023/04/24 03:44:55;;;;;;;;;;;;;;;8.82;75.14;99591.41;4914355;29;19918;-95
2023/04/24 03:47:26;;;;;;;;;;;;;;;8.94;74.97;99603.56;4914556;29;20029;-89
2023/04/24 03:49:53;;;;;;;;;;;;;;;8.84;76.06;99607.19;4919448;29;20017;-92
2023/04/24 03:52:19;;;;;;;;;;;;;;;8.90;77.46;99609.75;4951142;28;19918;-90
2023/04/24 03:55:00;;;;;;;;;;;;;;;8.96;77.26;99607.06;4951859;28;19929;-91
2023/04/24 04:04:07;;;;;;;;;;;;;;;9.14;77.13;99606.00;4949000;29;20065;-90
2023/04/24 04:06:51;;;;;;;;;;;;;;;9.12;77.11;99600.75;4945465;28;19941;-88
2023/04/24 04:09:17;;;;;;;;;;;;;;;9.20;76.07;99603.28;5007652;28;19980;-86
2023/04/24 04:11:42;;;;;;;;;;;;;;;9.20;75.83;99598.03;5010650;28;19957;-87
2023/04/24 04:14:07;;;;;;;;;;;;;;;9.08;76.69;99601.69;5011939;28;19924;-86
2023/04/24 04:16:33;;;;;;;;;;;;;;;9.11;77.11;99600.75;5010749;28;19948;-85
2023/04/24 04:18:59;;;;;;;;;;;;;;;9.34;76.91;99607.53;5009046;28;19983;-85
2023/04/24 04:21:24;;;;;;;;;;;;;;;9.59;76.83;99618.66;5010779;28;20375;-86
2023/04/24 04:23:49;;;;;;;;;;;;;;;9.76;76.29;99619.31;5009868;28;19921;-85
2023/04/24 04:26:15;;;;;;;;;;;;;;;9.93;76.85;99627.00;5010834;28;20360;-86
2023/04/24 04:28:40;;;;;;;;;;;;;;;10.08;76.72;99625.03;5010572;28;20009;-85
2023/04/24 04:31:07;;;;;;;;;;;;;;;10.19;76.19;99626.66;5010099;28;19920;-87
2023/04/24 04:33:33;;;;;;;;;;;;;;;10.42;74.63;99622.81;5005822;28;19917;-87
2023/04/24 04:35:58;;;;;;;;;;;;;;;10.43;74.04;99621.06;5018946;28;19921;-86
2023/04/24 04:38:23;;;;;;;;;;;;;;;10.41;74.23;99628.09;5010439;28;19917;-86
2023/04/24 04:40:49;;;;;;;;;;;;;;;10.40;74.15;99624.59;5007969;28;20259;-87
2023/04/24 04:43:15;;;;;;;;;;;;;;;10.32;74.27;99629.09;5010264;28;19913;-88
2023/04/24 04:45:43;;;;;;;;;;;;;;;10.37;74.17;99628.16;5012236;28;19921;-91
2023/04/24 04:48:08;;;;;;;;;;;;;;;10.56;73.90;99631.34;5006878;28;19928;-86
2023/04/24 04:50:34;;;;;;;;;;;;;;;10.65;74.11;99634.78;5009234;28;19913;-86
2023/04/24 04:53:00;;;;;;;;;;;;;;;10.82;74.14;99637.13;5019454;28;20004;-86
2023/04/24 04:55:25;;;;;;;;;;;;;;;10.93;73.92;99624.59;5007596;28;19929;-88
2023/04/24 04:57:51;;;;;;;;;;;;;;;11.10;73.47;99629.59;5020440;28;19913;-88
2023/04/24 05:00:17;;;;;;;;;;;;;;;11.36;72.73;99620.31;5016600;28;19913;-89
2023/04/24 05:02:42;;;;;;;;;;;;;;;11.54;71.48;99627.88;5010532;28;19924;-88
2023/04/24 05:05:08;;;;;;;;;;;;;;;11.56;71.35;99627.84;5010915;28;19945;-87
2023/04/24 05:07:33;;;;;;;;;;;;;;;11.64;70.78;99629.41;4999610;28;20323;-87
2023/04/24 05:09:59;;;;;;;;;;;;;;;11.75;70.30;99630.97;5021271;28;19917;-87
2023/04/24 05:12:24;;;;;;;;;;;;;;;11.93;69.86;99622.69;5013959;28;19913;-88
2023/04/24 05:14:50;;;;;;;;;;;;;;;12.26;69.05;99625.47;5005842;28;19925;-88
2023/04/24 05:17:16;;;;;;;;;;;;;;;12.21;68.47;99627.38;5011784;28;19917;-86
2023/04/24 05:19:41;;;;;;;;;;;;;;;12.08;67.75;99617.94;5020857;28;20003;-85
2023/04/24 05:22:07;;;;;;;;;;;;;;;11.77;69.71;99618.59;5010192;28;19949;-84
2023/04/24 05:24:33;;;;;;;;;;;;;;;11.83;69.83;99622.00;5020771;28;19964;-87
2023/04/24 05:26:58;;;;;;;;;;;;;;;12.20;69.34;99620.31;5011083;28;19953;-86
2023/04/24 05:29:24;;;;;;;;;;;;;;;12.05;70.27;99612.72;5024812;28;19936;-87
2023/04/24 05:31:49;;;;;;;;;;;;;;;11.96;70.58;99617.34;5007479;28;19917;-86
2023/04/24 05:34:16;;;;;;;;;;;;;;;12.15;70.21;99601.91;5023121;28;19913;-87
2023/04/24 05:36:42;;;;;;;;;;;;;;;12.43;69.76;99600.41;5008834;28;19921;-86
2023/04/24 05:39:08;;;;;;;;;;;;;;;12.89;67.73;99604.56;5010577;28;19971;-87
2023/04/24 05:41:33;;;;;;;;;;;;;;;12.93;68.57;99597.38;5007423;28;19953;-85
2023/04/24 05:43:59;;;;;;;;;;;;;;;12.98;68.21;99595.50;5011042;28;19914;-86
2023/04/24 05:46:24;;;;;;;;;;;;;;;13.17;67.96;99603.81;5009985;28;19909;-86
2023/04/24 05:48:50;;;;;;;;;;;;;;;13.49;67.33;99602.09;5010841;28;20351;-86
2023/04/24 05:51:15;;;;;;;;;;;;;;;13.63;66.11;99599.91;5010222;28;20071;-87
2023/04/24 05:53:40;;;;;;;;;;;;;;;13.84;66.19;99589.59;5002474;28;19917;-87
2023/04/24 05:56:06;;;;;;;;;;;;;;;13.87;65.75;99587.72;5008303;28;19917;-89
2023/04/24 05:58:31;;;;;;;;;;;;;;;14.28;65.51;99595.31;5008145;28;19917;-85
2023/04/24 06:00:58;;;;;;;;;;;;;;;14.32;63.96;99589.00;5010288;28;19968;-85
2023/04/24 06:03:23;;;;;;;;;;;;;;;14.14;63.25;99585.13;5013193;28;19924;-86
2023/04/24 06:05:49;;;;;;;;;;;;;;;14.40;63.58;99589.59;5013392;28;20290;-86
2023/04/24 06:08:15;;;;;;;;;;;;;;;14.53;62.70;99591.88;5013661;28;19914;-86
2023/04/24 06:10:41;;;;;;;;;;;;;;;14.55;62.99;99588.25;4995332;28;19917;-87
2023/04/24 06:13:06;;;;;;;;;;;;;;;14.64;62.50;99587.97;5014133;28;19914;-86
2023/04/24 06:15:31;;;;;;;;;;;;;;;14.77;62.52;99587.56;5013582;28;19913;-86
2023/04/24 06:17:57;;;;;;;;;;;;;;;14.55;62.87;99595.31;5014004;28;20376;-88
2023/04/24 06:20:22;;;;;;;;;;;;;;;15.04;62.29;99593.69;5013879;28;19925;-92
2023/04/24 06:22:48;;;;;;;;;;;;;;;15.34;62.78;99591.75;5014051;28;19918;-87
2023/04/24 06:25:13;;;;;;;;;;;;;;;15.67;61.71;99599.41;5013772;28;20027;-86
2023/04/24 06:27:39;;;;;;;;;;;;;;;16.03;58.92;99600.75;5014299;28;21178;-87
2023/04/24 06:30:04;;;;;;;;;;;;;;;16.21;57.81;99589.38;5013631;28;20366;-86
2023/04/24 06:32:30;;;;;;;;;;;;;;;15.69;59.58;99586.03;5013284;28;20004;-87
2023/04/24 06:34:56;;;;;;;;;;;;;;;15.80;59.25;99593.66;5013327;28;19928;-87
2023/04/24 06:37:21;;;;;;;;;;;;;;;15.69;59.73;99594.00;5013954;28;19913;-87
2023/04/24 06:39:47;;;;;;;;;;;;;;;15.82;59.97;99591.78;5018167;28;20331;-88
2023/04/24 06:42:12;;;;;;;;;;;;;;;15.66;59.15;99587.03;5033799;28;20258;-86
2023/04/24 06:44:40;;;;;;;;;;;;;;;15.91;58.99;99586.13;5033675;28;19916;-87
2023/04/24 06:47:13;;;;;;;;;;;;;;;15.84;58.30;99592.63;5032960;28;19920;-87
2023/04/24 06:49:39;;;;;;;;;;;;;;;16.09;57.77;99584.53;5033026;28;19923;-88
2023/04/24 06:52:04;;;;;;;;;;;;;;;16.60;58.07;99586.00;5033250;28;19971;-87
2023/04/24 06:57:32;;;;;;;;;;;;;;;17.16;56.16;99586.34;5032754;28;19935;-88
2023/04/24 06:59:58;;;;;;;;;;;;;;;16.99;55.00;99585.31;5033326;28;20375;-87
2023/04/24 07:02:23;;;;;;;;;;;;;;;16.61;54.65;99587.75;5032932;28;19909;-86
2023/04/24 07:04:48;;;;;;;;;;;;;;;16.38;55.62;99593.16;5033348;28;20007;-86
2023/04/24 07:07:14;;;;;;;;;;;;;;;16.57;55.94;99594.13;5032844;28;19943;-87
2023/04/24 07:09:42;;;;;;;;;;;;;;;16.69;56.56;99586.56;5031786;28;19924;-87
2023/04/24 07:12:07;;;;;;;;;;;;;;;16.85;55.60;99587.63;5032584;28;19913;-87
2023/04/24 07:14:33;;;;;;;;;;;;;;;17.16;53.49;99594.34;5030946;28;19912;-87
2023/04/24 07:16:58;;;;;;;;;;;;;;;17.20;53.80;99595.09;5032403;28;19924;-86
2023/04/24 07:19:23;;;;;;;;;;;;;;;16.78;53.89;99596.84;5032880;28;19924;-89
2023/04/24 07:21:49;;;;;;;;;;;;;;;16.74;55.05;99596.09;5031881;28;19916;-88
2023/04/24 07:24:16;;;;;;;;;;;;;;;16.54;55.41;99598.72;5032656;28;19939;-89
2023/04/24 07:26:41;;;;;;;;;;;;;;;16.69;54.06;99594.56;5032739;28;19913;-88
2023/04/24 07:29:07;;;;;;;;;;;;;;;16.89;54.18;99594.59;5032246;28;19991;-89
2023/04/24 07:31:32;;;;;;;;;;;;;;;17.29;52.06;99598.22;5032260;28;19913;-93
2023/04/24 07:33:59;;;;;;;;;;;;;;;16.77;53.24;99593.28;5032232;28;19913;-88
2023/04/24 07:36:25;;;;;;;;;;;;;;;17.35;53.22;99595.28;5032453;28;20386;-90
2023/04/24 07:38:51;;;;;;;;;;;;;;;17.43;53.56;99592.25;5031018;28;20351;-86
2023/04/24 07:41:16;;;;;;;;;;;;;;;18.17;51.42;99591.53;5030940;28;19920;-86
2023/04/24 07:43:41;;;;;;;;;;;;;;;18.67;49.29;99587.31;5031987;28;19978;-86
2023/04/24 07:46:07;;;;;;;;;;;;;;;18.91;50.53;99589.75;5031777;28;19958;-87
2023/04/24 07:48:33;;;;;;;;;;;;;;;19.36;47.44;99590.09;5013872;28;20314;-87
2023/04/24 07:50:58;;;;;;;;;;;;;;;19.19;48.32;99582.97;5032070;28;20387;-94
2023/04/24 07:53:24;;;;;;;;;;;;;;;19.14;45.72;99583.22;5032349;28;19913;-91
2023/04/24 07:55:49;;;;;;;;;;;;;;;19.59;48.30;99579.03;5031741;28;19920;-88
2023/04/24 07:58:15;;;;;;;;;;;;;;;19.47;46.08;99577.88;5031664;28;20110;-91
2023/04/24 08:00:40;;;;;;;;;;;;;;;19.24;48.22;99578.25;5032270;28;19928;-91
2023/04/24 08:03:05;;;;;;;;;;;;;;;19.52;46.89;99572.28;5014822;28;19912;-91
2023/04/24 08:05:31;;;;;;;;;;;;;;;19.98;47.02;99567.09;5031280;28;20402;-91
2023/04/24 08:07:56;;;;;;;;;;;;;;;20.30;45.46;99572.47;5037077;28;19913;-90
2023/04/24 08:10:22;;;;;;;;;;;;;;;20.43;43.92;99567.25;5037251;28;19913;-91
2023/04/24 08:12:49;;;;;;;;;;;;;;;20.60;43.80;99568.94;5039494;28;19928;-91
2023/04/24 08:15:16;;;;;;;;;;;;;;;20.60;43.52;99568.94;5038673;28;19913;-91
2023/04/24 08:20:45;;;;;;;;;;;;;;;20.15;43.18;99549.22;5031757;28;20031;-89
2023/04/24 08:23:19;;;;;;;;;;;;;;;20.54;43.81;99555.91;5030394;28;19913;-90
2023/04/24 08:25:44;;;;;;;;;;;;;;;20.50;44.36;99555.25;5031327;28;19920;-90
2023/04/24 08:28:10;;;;;;;;;;;;;;;20.88;42.30;99549.47;5031759;28;19912;-89
2023/04/24 08:30:36;;;;;;;;;;;;;;;20.82;41.78;99543.59;5032242;28;19913;-91
2023/04/24 08:33:01;;;;;;;;;;;;;;;20.99;43.16;99543.47;5031476;28;20346;-91
2023/04/24 08:35:26;;;;;;;;;;;;;;;20.75;42.01;99535.06;5031770;28;20004;-88
2023/04/24 08:37:53;;;;;;;;;;;;;;;20.72;42.58;99536.09;5031604;28;20371;-89
2023/04/24 08:40:19;;;;;;;;;;;;;;;20.63;42.21;99533.09;5031629;28;19924;-88
2023/04/24 08:42:46;;;;;;;;;;;;;;;20.62;42.42;99534.91;5031339;28;19928;-89
2023/04/24 08:45:12;;;;;;;;;;;;;;;20.72;42.78;99525.38;5031129;28;19921;-90
2023/04/24 08:47:38;;;;;;;;;;;;;;;20.75;41.46;99522.50;5031412;28;19920;-88
2023/04/24 08:50:05;;;;;;;;;;;;;;;20.83;40.92;99524.75;5031310;28;19995;-89
2023/04/24 08:52:32;;;;;;;;;;;;;;;21.11;42.48;99515.88;5031284;28;19913;-93
2023/04/24 08:54:58;;;;;;;;;;;;;;;21.17;41.28;99514.63;5031480;28;19913;-89
2023/04/24 08:57:24;;;;;;;;;;;;;;;20.90;42.33;99506.47;5030016;28;20308;-91
2023/04/24 08:59:54;;;;;;;;;;;;;;;21.15;43.51;99496.91;5013175;28;20387;-91
2023/04/24 09:02:20;;;;;;;;;;;;;;;21.56;41.98;99494.34;5031652;28;19913;-91
2023/04/24 09:04:47;;;;;;;;;;;;;;;21.18;43.39;99494.03;5033228;28;19921;-88
2023/04/24 09:07:19;;;;;;;;;;;;;;;21.12;43.74;99492.63;5033176;28;19913;-90
2023/04/24 09:09:45;;;;;;;;;;;;;;;21.18;40.35;99504.75;5037223;28;19916;-87
2023/04/24 09:12:11;;;;;;;;;;;;;;;20.89;41.52;99489.50;5030535;28;19920;-89
2023/04/24 09:14:39;;;;;;;;;;;;;;;21.20;42.32;99484.94;5029838;28;19913;-88
2023/04/24 09:17:05;;;;;;;;;;;;;;;21.43;41.56;99483.50;5030109;28;19998;-89
2023/04/24 09:19:31;;;;;;;;;;;;;;;21.26;42.15;99481.88;5029529;28;19913;-88
2023/04/24 09:21:56;;;;;;;;;;;;;;;20.96;41.92;99486.47;5038722;28;19913;-88
2023/04/24 09:24:23;;;;;;;;;;;;;;;20.87;42.01;99486.06;5030351;28;20019;-87
2023/04/24 09:26:49;;;;;;;;;;;;;;;20.94;43.81;99489.25;5029838;28;20382;-89
2023/04/24 09:29:18;;;;;;;;;;;;;;;20.96;43.13;99489.13;5012613;28;20230;-88
2023/04/24 09:31:44;;;;;;;;;;;;;;;21.20;43.83;99478.72;5029951;28;20263;-88
2023/04/24 11:11:13;;;;;;;3.00;2.38;;;;;;;20.83;48.91;99304.09;5076517;27;20792;-89
2023/04/24 11:14:16;;;;;;;4.72;1.63;;;;;;;21.75;46.72;99351.78;5076286;28;20032;-90
2023/04/24 11:16:41;;;;;;;2.92;2.17;;;;;;;21.79;46.40;99349.72;5062234;28;20083;-90
2023/04/24 11:19:20;;;;;;;3.75;2.90;;;;;;;21.82;47.67;99346.84;5063757;28;20095;-90
2023/04/24 11:22:03;;;;;;;4.15;2.97;;;;;;;21.95;46.07;99318.22;5063788;28;20521;-89
2023/04/24 11:24:47;;;;;;;2.88;2.47;;;;;;;22.67;47.95;99339.22;5062961;28;20498;-92
2023/04/24 11:27:20;;;;;;;4.72;2.45;;;;;;;21.60;45.60;99283.88;5055164;28;20043;-86
2023/04/24 11:30:00;;;;;;;4.38;2.92;;;;;;;21.31;46.75;99274.19;5061895;28;20052;-88
2023/04/24 11:32:29;;;;;;;4.72;2.13;;;;;;;21.42;45.65;99336.88;5063241;28;20051;-89
2023/04/24 11:35:02;;;;;;;4.25;2.33;;;;;;;21.52;46.28;99296.06;5062253;28;20461;-92
2023/04/24 11:37:33;;;;;;;4.43;2.60;;;;;;;21.74;47.37;99284.78;5047160;28;20039;-90
2023/04/24 11:39:59;;;;;;;4.32;2.38;;;;;;;22.33;47.41;99319.25;5063670;28;20063;-94
2023/04/24 11:42:25;;;;;;;2.78;2.15;;;;;;;22.26;46.74;99262.38;5046929;28;20033;-92
2023/04/24 11:44:55;;;;;;;3.10;2.10;;;;;;;21.37;47.73;99229.03;5077486;28;20043;-89
2023/04/24 11:47:27;;;;;;;3.38;2.25;;;;;;;21.46;47.99;99276.69;5079500;28;20028;-87
2023/04/24 11:50:00;;;;;;;3.92;2.72;;;;;;;22.06;48.93;99328.22;5064310;28;20044;-90
2023/04/24 11:52:30;;;;;;;4.72;2.65;;;;;;;21.90;47.28;99314.94;5072641;28;20032;-89
2023/04/24 11:54:55;;;;;;;2.70;1.95;;;;;;;21.78;47.93;99229.88;5073327;28;20131;-89
2023/04/24 11:57:23;;;;;;;6.20;2.67;;;;;;;21.83;47.28;99268.03;5076072;28;20119;-86
2023/04/24 11:59:50;;;;;;;11.80;3.50;;;;;;;21.57;46.55;99251.03;5065972;28;20501;-88
2023/04/24 12:02:25;;;;;;;3.72;2.72;;;;;;;21.85;47.29;99255.34;5069701;28;20366;-87
2023/04/24 12:04:54;;;;;;;4.63;2.45;;;;;;;21.98;47.56;99240.13;5071319;28;20516;-88
2023/04/24 12:07:20;;;;;;;2.47;1.92;;;;;;;21.88;46.79;99205.97;5070218;28;20032;-85
2023/04/24 12:09:48;;;;;;;2.60;2.10;;;;;;;22.26;49.35;99205.94;5068958;28;20406;-86
2023/04/24 12:12:17;;;;;;;6.65;2.40;;;;;;;22.35;44.76;99204.44;5055366;28;20025;-88
2023/04/24 12:14:49;;;;;;;2.97;1.75;;;;;;;22.40;45.19;99205.00;5057139;28;20028;-88
2023/04/24 12:17:24;;;;;;;3.53;2.08;;;;;;;22.45;45.01;99202.81;5061621;28;20378;-88
2023/04/24 12:19:50;;;;;;;2.85;1.67;;;;;;;22.09;44.89;99164.19;5055694;28;20041;-86
2023/04/24 12:22:16;;;;;;;3.22;2.03;;;;;;;22.24;46.18;99207.03;5061671;28;20098;-88
2023/04/24 12:25:05;;;;;;;3.83;2.05;;;;;;;22.40;45.61;99231.88;5060960;28;20116;-86
2023/04/24 12:27:33;;;;;;;4.95;3.10;;;;;;;21.85;44.47;99129.19;5050902;28;20025;-86
2023/04/24 12:30:02;;;;;;;3.20;2.28;;;;;;;21.82;44.30;99164.28;5060660;28;20494;-88
2023/04/24 12:32:28;;;;;;;2.55;1.90;;;;;;;21.92;44.11;99148.38;5056166;28;20157;-87
2023/04/24 12:34:55;;;;;;;3.47;2.10;;;;;;;22.39;44.27;99178.25;5059871;28;20495;-91
2023/04/24 12:37:22;;;;;;;2.63;1.85;;;;;;;22.41;43.59;99157.50;5051231;28;20024;-87
2023/04/24 12:40:08;;;;;;;4.93;1.92;;;;;;;21.89;44.35;99136.06;5051988;28;20037;-88
2023/04/24 12:42:34;;;;;;;4.22;1.88;;;;;;;22.06;45.63;99126.81;5054317;28;20044;-86
2023/04/24 12:45:04;;;;;;;3.80;2.30;;;;;;;21.80;46.36;99091.06;5058933;28;20119;-88
2023/04/24 12:47:31;;;;;;;2.92;2.45;;;;;;;22.46;47.37;99169.63;5057840;28;20064;-90
2023/04/24 12:49:57;;;;;;;7.22;2.45;;;;;;;22.63;45.82;99124.50;5059725;28;20031;-87
2023/04/24 12:52:23;;;;;;;1.73;1.35;;;;;;;22.28;44.83;99085.81;5058824;28;20123;-86
2023/04/24 12:54:50;;;;;;;3.00;1.70;;;;;;;22.44;43.09;99116.97;5058263;28;20039;-88
2023/04/24 12:57:17;;;;;;;18.55;2.42;;;;;;;22.65;44.17;99122.59;5061729;28;20123;-87
2023/04/24 12:59:43;;;;;;;10.80;2.47;;;;;;;22.66;41.68;99119.78;5062374;28;20394;-88
2023/04/24 13:02:09;;;;;;;1.63;1.42;;;;;;;22.45;44.79;99111.47;5068196;28;20029;-87
2023/04/24 13:04:35;;;;;;;14.77;2.63;;;;;;;22.23;44.18;99112.16;5061352;28;20059;-87
2023/04/24 13:07:01;;;;;;;2.33;1.55;;;;;;;22.04;42.45;99083.06;5056552;28;20064;-86
2023/04/24 13:09:26;;;;;;;3.20;2.05;;;;;;;22.76;42.48;99132.53;5062476;28;20076;-88
2023/04/24 13:11:52;;;;;;;3.90;2.28;;;;;;;22.67;42.82;99121.47;5060080;28;20473;-86
2023/04/24 13:14:17;;;;;;;4.55;2.15;;;;;;;22.67;42.00;99061.50;5062441;28;20029;-88
2023/04/24 13:16:43;;;;;;;2.25;1.85;;;;;;;22.99;43.41;99079.72;5058196;28;20029;-87
2023/04/24 13:19:08;;;;;;;2.85;2.20;;;;;;;22.61;42.35;99100.44;5059652;28;20025;-88
2023/04/24 13:21:34;;;;;;;2.75;1.55;;;;;;;22.44;42.96;99029.13;5053215;28;20040;-88
2023/04/24 13:24:00;;;;;;;2.60;1.27;;;;;;;22.97;43.81;99125.56;5056621;28;20021;-87
2023/04/24 13:26:25;;;;;;;4.53;2.08;;;;;;;22.54;42.16;99069.63;5057163;28;20033;-88
2023/04/24 13:28:51;;;;;;;3.30;2.00;;;;;;;23.18;41.22;99095.34;5056629;28;20036;-88
2023/04/24 13:31:16;;;;;;;2.63;1.77;;;;;;;22.75;40.63;99024.13;5063453;28;20025;-86
2023/04/24 13:33:42;;;;;;;4.20;2.75;;;;;;;22.79;42.55;99048.97;5059484;28;20033;-89
2023/04/24 13:36:10;;;;;;;2.50;1.73;;;;;;;22.97;42.06;99044.00;5058510;28;20078;-92
2023/04/24 13:38:36;;;;;;;2.67;1.70;;;;;;;23.14;41.16;99011.34;5048643;28;20037;-92
2023/04/24 13:41:02;;;;;;;3.97;2.15;;;;;;;22.84;42.75;99017.22;5058056;28;20537;-88
2023/04/24 13:43:28;;;;;;;3.40;2.13;;;;;;;22.34;42.99;99036.19;5059495;28;20040;-87
2023/04/24 13:45:53;;;;;;;2.75;1.92;;;;;;;22.56;42.73;99059.63;5043178;28;20426;-88
2023/04/24 13:48:19;;;;;;;2.55;1.80;;;;;;;22.75;41.59;99063.59;5058906;28;20040;-89
2023/04/24 13:50:48;;;;;;;2.78;1.73;;;;;;;22.66;43.46;99031.09;5062814;28;20525;-90
2023/04/24 13:53:13;;;;;;;8.25;2.17;;;;;;;22.89;41.94;99061.59;5059881;28;20031;-90
2023/04/24 13:55:39;;;;;;;2.90;1.70;;;;;;;22.37;40.93;99010.91;5054419;28;20773;-87
2023/04/24 13:58:06;;;;;;;2.15;1.58;;;;;;;22.24;40.77;99037.78;5045710;28;20138;-87
2023/04/24 14:00:32;;;;;;;3.20;1.98;;;;;;;22.50;40.78;99054.69;5045250;28;20067;-92
2023/04/24 14:02:57;;;;;;;2.65;2.03;;;;;;;22.98;40.21;99048.41;5040152;28;20163;-90
2023/04/24 14:05:30;;;;;;;4.22;2.40;;;;;;;23.28;40.78;99065.88;5048585;28;20409;-89
2023/04/24 14:07:56;;;;;;;4.07;1.80;;;;;;;23.09;39.49;99026.09;5050135;28;20195;-88
2023/04/24 14:10:21;;;;;;;2.33;1.50;;;;;;;23.47;38.99;99041.09;5051390;28;20162;-87
2023/04/24 14:12:47;;;;;;;3.95;1.80;;;;;;;22.99;38.60;98999.88;5047510;28;20033;-88
2023/04/24 14:15:13;;;;;;;3.50;1.83;;;;;;;23.28;37.98;98985.16;5049285;28;20124;-88
2023/04/24 14:17:39;;;;;;;2.95;1.70;;;;;;;23.84;37.88;99036.34;5050251;28;20033;-88
2023/04/24 14:20:08;;;;;;;3.28;1.90;;;;;;;23.59;38.53;99022.13;5050733;28;20415;-89
2023/04/24 14:22:34;;;;;;;3.42;2.17;;;;;;;23.51;37.87;98989.59;5063956;28;20112;-87
2023/04/24 14:25:01;;;;;;;1.95;1.25;;;;;;;23.63;37.68;98990.41;5050365;28;20174;-91
2023/04/24 14:27:26;;;;;;;3.60;1.55;;;;;;;23.58;38.50;99014.16;5050210;28;20086;-87
2023/04/24 14:29:52;;;;;;;1.70;1.42;;;;;;;23.81;38.54;99006.94;5051740;28;20036;-89
2023/04/24 14:32:18;;;;;;;9.07;1.85;;;;;;;23.69;39.58;98997.16;5049638;28;20039;-89
2023/04/24 14:34:44;;;;;;;3.38;2.85;;;;;;;24.18;37.88;99063.25;5041745;28;20033;-90
2023/04/24 14:37:09;;;;;;;5.53;1.65;;;;;;;23.49;37.50;99004.97;5058107;28;20040;-88
2023/04/24 14:39:35;;;;;;;1.75;1.35;;;;;;;23.70;37.67;99036.56;5055429;28;20025;-88
2023/04/24 14:42:01;;;;;;;2.40;1.50;;;;;;;23.54;38.28;99000.13;5050080;28;20035;-89
2023/04/24 14:44:26;;;;;;;3.50;2.35;;;;;;;;;;5050136;28;20095;-89
2023/04/24 14:46:52;;;;;;;2.85;1.60;;;;;;;23.03;39.18;98962.84;5049505;28;20064;-89
2023/04/24 14:49:20;;;;;;;3.85;1.77;;;;;;;22.98;38.89;98983.88;5050411;28;20028;-88
2023/04/24 14:51:45;;;;;;;2.08;1.58;;;;;;;23.06;38.73;99019.09;5050107;28;20059;-90
2023/04/24 14:54:11;;;;;;;4.53;1.90;;;;;;;22.53;39.92;98984.59;5050145;28;20057;-88
2023/04/24 14:56:37;;;;;;;3.15;1.85;;;;;;;22.39;40.00;98971.38;5050453;28;20512;-88
2023/04/24 14:59:03;;;;;;;1.90;1.45;;;;;;;22.69;40.23;98987.84;5049629;28;20036;-89
2023/04/24 15:01:29;;;;;;;1.73;1.35;;;;;;;22.96;39.89;98980.47;5048414;28;20067;-89
2023/04/24 15:03:55;;;;;;;2.60;1.80;;;;;;;22.64;39.69;98978.41;5049949;28;20049;-88
2023/04/24 15:06:20;;;;;;;3.42;2.20;;;;;;;22.69;39.34;98987.84;5047916;28;20032;-90
2023/04/24 15:08:46;;;;;;;5.07;2.30;;;;;;;22.77;40.56;98954.13;5049806;28;20029;-89
2023/04/24 15:11:12;;;;;;;8.38;1.90;;;;;;;22.83;39.50;98985.91;5048652;28;20108;-88
2023/04/24 15:13:39;;;;;;;2.10;1.35;;;;;;;22.96;39.34;99013.56;5048590;28;20055;-88
2023/04/24 15:16:05;;;;;;;2.08;0.93;;;;;;;22.29;38.29;98985.47;5049797;28;20521;-90
2023/04/24 15:18:31;;;;;;;2.83;1.70;;;;;;;22.25;38.69;98965.16;5048864;28;20037;-89
2023/04/24 15:20:57;;;;;;;1.73;1.20;;;;;;;22.54;39.32;98997.06;5045021;28;20503;-90
2023/04/24 15:23:26;;;;;;;1.25;0.85;;;;;;;22.58;39.95;98966.28;5047166;28;20025;-91
2023/04/24 15:25:52;;;;;;;1.17;1.05;;;;;;;22.17;39.62;98975.63;5049844;28;20029;-89